sensor_id;sensor_type;location;lat;lon;timestamp;pressure;altitude;pressure_sealevel;temperature;humidity
27613;BME280;15036;48.094;-1.690;2022-12-07T00:01:33;101551.59;;;9.26;56.02
27613;BME280;15036;48.094;-1.690;2022-12-07T00:04:00;101556.03;;;9.19;56.44
27613;BME280;15036;48.094;-1.690;2022-12-07T00:06:31;101543.06;;;9.37;55.58
27613;BME280;15036;48.094;-1.690;2022-12-07T00:08:57;101544.41;;;9.41;55.84
27613;BME280;15036;48.094;-1.690;2022-12-07T00:11:23;101543.41;;;9.42;55.43
27613;BME280;15036;48.094;-1.690;2022-12-07T00:13:57;101542.41;;;9.27;55.73
27613;BME280;15036;48.094;-1.690;2022-12-07T00:16:25;101539.00;;;9.25;55.90
27613;BME280;15036;48.094;-1.690;2022-12-07T00:18:52;101538.84;;;9.26;55.92
27613;BME280;15036;48.094;-1.690;2022-12-07T00:21:26;101528.78;;;9.19;55.79
27613;BME280;15036;48.094;-1.690;2022-12-07T00:23:53;101531.53;;;9.19;55.65
27613;BME280;15036;48.094;-1.690;2022-12-07T00:26:22;101529.97;;;9.16;55.87
27613;BME280;15036;48.094;-1.690;2022-12-07T00:28:51;101525.22;;;9.10;55.84
27613;BME280;15036;48.094;-1.690;2022-12-07T00:31:18;101523.34;;;9.11;55.93
27613;BME280;15036;48.094;-1.690;2022-12-07T00:33:45;101517.56;;;9.06;55.92
27613;BME280;15036;48.094;-1.690;2022-12-07T00:36:13;101516.69;;;9.05;55.79
27613;BME280;15036;48.094;-1.690;2022-12-07T00:38:39;101525.72;;;9.06;55.96
27613;BME280;15036;48.094;-1.690;2022-12-07T00:41:10;101528.97;;;9.01;55.91
27613;BME280;15036;48.094;-1.690;2022-12-07T00:43:35;101528.28;;;8.99;55.99
27613;BME280;15036;48.094;-1.690;2022-12-07T00:46:01;101525.41;;;9.01;55.93
27613;BME280;15036;48.094;-1.690;2022-12-07T00:48:26;101531.84;;;8.92;56.00
27613;BME280;15036;48.094;-1.690;2022-12-07T00:50:52;101524.88;;;8.97;55.74
27613;BME280;15036;48.094;-1.690;2022-12-07T00:53:19;101510.22;;;8.90;55.95
27613;BME280;15036;48.094;-1.690;2022-12-07T00:55:44;101519.94;;;9.09;55.63
27613;BME280;15036;48.094;-1.690;2022-12-07T00:58:10;101517.53;;;8.90;55.92
27613;BME280;15036;48.094;-1.690;2022-12-07T01:00:37;101517.91;;;8.87;55.97
27613;BME280;15036;48.094;-1.690;2022-12-07T01:03:04;101519.94;;;9.01;55.72
27613;BME280;15036;48.094;-1.690;2022-12-07T01:05:30;101519.25;;;8.74;56.28
27613;BME280;15036;48.094;-1.690;2022-12-07T01:07:55;101524.69;;;8.66;56.40
27613;BME280;15036;48.094;-1.690;2022-12-07T01:10:20;101532.69;;;8.76;56.30
27613;BME280;15036;48.094;-1.690;2022-12-07T01:12:46;101516.19;;;8.61;56.54
27613;BME280;15036;48.094;-1.690;2022-12-07T01:15:11;101514.13;;;8.80;56.05
27613;BME280;15036;48.094;-1.690;2022-12-07T01:17:37;101518.75;;;8.79;56.18
27613;BME280;15036;48.094;-1.690;2022-12-07T01:20:03;101515.84;;;8.72;56.12
27613;BME280;15036;48.094;-1.690;2022-12-07T01:22:28;101514.66;;;8.75;56.23
27613;BME280;15036;48.094;-1.690;2022-12-07T01:24:53;101513.78;;;8.66;56.33
27613;BME280;15036;48.094;-1.690;2022-12-07T01:27:19;101505.97;;;8.80;56.14
27613;BME280;15036;48.094;-1.690;2022-12-07T01:29:44;101512.44;;;8.70;56.28
27613;BME280;15036;48.094;-1.690;2022-12-07T01:32:10;101513.09;;;8.64;56.41
27613;BME280;15036;48.094;-1.690;2022-12-07T01:34:35;101518.22;;;8.59;56.42
27613;BME280;15036;48.094;-1.690;2022-12-07T01:37:01;101510.34;;;8.48;56.66
27613;BME280;15036;48.094;-1.690;2022-12-07T01:39:26;101507.63;;;8.48;56.87
27613;BME280;15036;48.094;-1.690;2022-12-07T01:41:52;101511.03;;;8.50;56.67
27613;BME280;15036;48.094;-1.690;2022-12-07T01:44:24;101513.56;;;8.36;56.85
27613;BME280;15036;48.094;-1.690;2022-12-07T01:46:53;101516.16;;;8.53;56.53
27613;BME280;15036;48.094;-1.690;2022-12-07T01:49:22;101521.56;;;8.37;56.84
27613;BME280;15036;48.094;-1.690;2022-12-07T01:51:49;101517.53;;;8.49;56.50
27613;BME280;15036;48.094;-1.690;2022-12-07T01:54:16;101516.31;;;8.10;57.16
27613;BME280;15036;48.094;-1.690;2022-12-07T01:56:47;101513.81;;;8.17;56.82
27613;BME280;15036;48.094;-1.690;2022-12-07T01:59:15;101527.41;;;7.24;58.95
27613;BME280;15036;48.094;-1.690;2022-12-07T02:01:41;101528.38;;;7.40;58.81
27613;BME280;15036;48.094;-1.690;2022-12-07T02:04:07;101524.00;;;7.22;58.74
27613;BME280;15036;48.094;-1.690;2022-12-07T02:06:33;101540.91;;;7.16;58.93
27613;BME280;15036;48.094;-1.690;2022-12-07T02:09:00;101541.44;;;7.37;58.30
27613;BME280;15036;48.094;-1.690;2022-12-07T02:11:25;101546.53;;;7.40;58.21
27613;BME280;15036;48.094;-1.690;2022-12-07T02:13:51;101537.00;;;6.92;59.48
27613;BME280;15036;48.094;-1.690;2022-12-07T02:16:38;101540.50;;;6.85;59.43
27613;BME280;15036;48.094;-1.690;2022-12-07T02:19:37;101536.91;;;7.02;59.42
27613;BME280;15036;48.094;-1.690;2022-12-07T02:25:41;101538.47;;;7.05;58.79
27613;BME280;15036;48.094;-1.690;2022-12-07T02:28:31;101537.22;;;7.42;58.04
27613;BME280;15036;48.094;-1.690;2022-12-07T02:31:05;101544.75;;;6.87;59.21
27613;BME280;15036;48.094;-1.690;2022-12-07T02:33:36;101527.97;;;7.10;59.01
27613;BME280;15036;48.094;-1.690;2022-12-07T02:36:10;101538.59;;;7.21;58.76
27613;BME280;15036;48.094;-1.690;2022-12-07T02:38:43;101527.34;;;7.16;58.63
27613;BME280;15036;48.094;-1.690;2022-12-07T02:41:20;101530.81;;;7.26;58.41
27613;BME280;15036;48.094;-1.690;2022-12-07T02:43:55;101525.16;;;7.45;57.76
27613;BME280;15036;48.094;-1.690;2022-12-07T02:46:26;101532.03;;;7.31;58.16
27613;BME280;15036;48.094;-1.690;2022-12-07T02:48:54;101535.44;;;7.08;58.51
27613;BME280;15036;48.094;-1.690;2022-12-07T02:51:21;101537.97;;;7.27;58.32
27613;BME280;15036;48.094;-1.690;2022-12-07T02:53:47;101540.34;;;7.30;58.26
27613;BME280;15036;48.094;-1.690;2022-12-07T02:56:35;101545.72;;;7.22;58.16
27613;BME280;15036;48.094;-1.690;2022-12-07T03:01:55;101544.16;;;7.37;58.04
27613;BME280;15036;48.094;-1.690;2022-12-07T03:10:18;101545.03;;;7.45;57.54
27613;BME280;15036;48.094;-1.690;2022-12-07T03:13:10;101538.63;;;7.46;57.40
27613;BME280;15036;48.094;-1.690;2022-12-07T03:18:19;101545.50;;;7.41;57.75
27613;BME280;15036;48.094;-1.690;2022-12-07T03:20:48;101545.56;;;7.49;57.07
27613;BME280;15036;48.094;-1.690;2022-12-07T03:23:18;101545.25;;;7.52;56.98
27613;BME280;15036;48.094;-1.690;2022-12-07T03:25:47;101548.78;;;7.44;57.28
27613;BME280;15036;48.094;-1.690;2022-12-07T03:28:16;101548.66;;;7.54;57.17
27613;BME280;15036;48.094;-1.690;2022-12-07T03:31:35;101551.34;;;7.46;57.15
27613;BME280;15036;48.094;-1.690;2022-12-07T03:33:48;101542.38;;;7.53;56.83
27613;BME280;15036;48.094;-1.690;2022-12-07T03:36:45;101528.97;;;7.52;56.67
27613;BME280;15036;48.094;-1.690;2022-12-07T03:41:50;101522.78;;;7.42;56.74
27613;BME280;15036;48.094;-1.690;2022-12-07T03:44:16;101516.88;;;7.46;56.70
27613;BME280;15036;48.094;-1.690;2022-12-07T03:47:04;101532.59;;;7.35;56.78
27613;BME280;15036;48.094;-1.690;2022-12-07T03:49:55;101529.91;;;7.43;56.45
27613;BME280;15036;48.094;-1.690;2022-12-07T03:55:02;101529.81;;;7.27;56.87
27613;BME280;15036;48.094;-1.690;2022-12-07T03:57:31;101532.66;;;7.25;56.82
27613;BME280;15036;48.094;-1.690;2022-12-07T03:59:58;101529.44;;;7.22;56.90
27613;BME280;15036;48.094;-1.690;2022-12-07T04:02:27;101531.28;;;7.21;56.94
27613;BME280;15036;48.094;-1.690;2022-12-07T04:04:53;101537.00;;;7.36;56.52
27613;BME280;15036;48.094;-1.690;2022-12-07T04:07:18;101530.50;;;7.03;57.33
27613;BME280;15036;48.094;-1.690;2022-12-07T04:09:44;101540.50;;;7.03;57.41
27613;BME280;15036;48.094;-1.690;2022-12-07T04:12:10;101527.91;;;7.01;57.57
27613;BME280;15036;48.094;-1.690;2022-12-07T04:14:35;101526.25;;;7.26;56.77
27613;BME280;15036;48.094;-1.690;2022-12-07T04:17:01;101527.75;;;7.21;56.92
27613;BME280;15036;48.094;-1.690;2022-12-07T04:19:28;101520.53;;;7.12;57.02
27613;BME280;15036;48.094;-1.690;2022-12-07T04:21:55;101530.75;;;7.18;56.81
27613;BME280;15036;48.094;-1.690;2022-12-07T04:24:21;101523.63;;;7.17;56.84
27613;BME280;15036;48.094;-1.690;2022-12-07T04:26:47;101529.00;;;7.09;57.06
27613;BME280;15036;48.094;-1.690;2022-12-07T04:29:13;101519.69;;;6.93;57.37
27613;BME280;15036;48.094;-1.690;2022-12-07T04:31:40;101525.00;;;6.95;57.11
27613;BME280;15036;48.094;-1.690;2022-12-07T04:34:06;101516.34;;;6.99;57.03
27613;BME280;15036;48.094;-1.690;2022-12-07T04:36:32;101524.13;;;6.94;57.20
27613;BME280;15036;48.094;-1.690;2022-12-07T04:38:57;101518.22;;;7.17;56.57
27613;BME280;15036;48.094;-1.690;2022-12-07T04:41:24;101514.97;;;6.95;56.90
27613;BME280;15036;48.094;-1.690;2022-12-07T04:43:56;101518.53;;;6.96;57.04
27613;BME280;15036;48.094;-1.690;2022-12-07T04:46:23;101517.94;;;6.84;57.20
27613;BME280;15036;48.094;-1.690;2022-12-07T04:48:50;101518.56;;;6.78;57.36
27613;BME280;15036;48.094;-1.690;2022-12-07T04:51:19;101518.47;;;6.88;57.14
27613;BME280;15036;48.094;-1.690;2022-12-07T04:53:45;101520.91;;;6.73;57.37
27613;BME280;15036;48.094;-1.690;2022-12-07T04:56:10;101515.00;;;6.60;57.93
27613;BME280;15036;48.094;-1.690;2022-12-07T04:58:35;101512.69;;;6.65;57.76
27613;BME280;15036;48.094;-1.690;2022-12-07T05:01:01;101515.69;;;6.62;57.69
27613;BME280;15036;48.094;-1.690;2022-12-07T05:03:26;101506.56;;;6.63;57.81
27613;BME280;15036;48.094;-1.690;2022-12-07T05:05:52;101515.78;;;6.70;57.44
27613;BME280;15036;48.094;-1.690;2022-12-07T05:08:17;101517.94;;;6.67;57.46
27613;BME280;15036;48.094;-1.690;2022-12-07T05:10:42;101525.84;;;6.60;57.82
27613;BME280;15036;48.094;-1.690;2022-12-07T05:13:08;101523.13;;;6.60;57.73
27613;BME280;15036;48.094;-1.690;2022-12-07T05:15:33;101518.25;;;6.64;57.52
27613;BME280;15036;48.094;-1.690;2022-12-07T05:17:59;101518.41;;;6.62;57.63
27613;BME280;15036;48.094;-1.690;2022-12-07T05:20:24;101518.41;;;6.62;57.70
27613;BME280;15036;48.094;-1.690;2022-12-07T05:22:49;101522.50;;;6.66;57.49
27613;BME280;15036;48.094;-1.690;2022-12-07T05:25:15;101523.13;;;6.78;57.30
27613;BME280;15036;48.094;-1.690;2022-12-07T05:27:40;101511.97;;;6.81;57.35
27613;BME280;15036;48.094;-1.690;2022-12-07T05:30:06;101522.34;;;6.68;57.88
27613;BME280;15036;48.094;-1.690;2022-12-07T05:32:32;101511.41;;;6.77;57.72
27613;BME280;15036;48.094;-1.690;2022-12-07T05:34:57;101515.59;;;6.89;57.27
27613;BME280;15036;48.094;-1.690;2022-12-07T05:37:23;101510.16;;;6.89;57.58
27613;BME280;15036;48.094;-1.690;2022-12-07T05:39:48;101500.44;;;6.79;57.63
27613;BME280;15036;48.094;-1.690;2022-12-07T05:42:13;101491.75;;;6.75;57.73
27613;BME280;15036;48.094;-1.690;2022-12-07T05:44:41;101485.63;;;6.73;57.70
27613;BME280;15036;48.094;-1.690;2022-12-07T05:47:06;101484.94;;;6.71;57.84
27613;BME280;15036;48.094;-1.690;2022-12-07T05:49:32;101501.25;;;6.79;57.62
27613;BME280;15036;48.094;-1.690;2022-12-07T05:51:58;101508.66;;;6.69;57.81
27613;BME280;15036;48.094;-1.690;2022-12-07T05:54:23;101513.59;;;6.74;57.44
27613;BME280;15036;48.094;-1.690;2022-12-07T05:56:49;101507.31;;;6.56;58.00
27613;BME280;15036;48.094;-1.690;2022-12-07T05:59:14;101522.84;;;6.63;57.92
27613;BME280;15036;48.094;-1.690;2022-12-07T06:04:16;101527.06;;;6.48;58.37
27613;BME280;15036;48.094;-1.690;2022-12-07T06:06:41;101521.97;;;6.28;58.62
27613;BME280;15036;48.094;-1.690;2022-12-07T06:09:06;101524.69;;;6.18;58.78
27613;BME280;15036;48.094;-1.690;2022-12-07T06:11:32;101530.56;;;6.41;58.16
27613;BME280;15036;48.094;-1.690;2022-12-07T06:14:16;101523.22;;;6.51;57.86
27613;BME280;15036;48.094;-1.690;2022-12-07T06:16:42;101534.31;;;6.30;58.04
27613;BME280;15036;48.094;-1.690;2022-12-07T06:19:07;101532.19;;;6.34;58.20
27613;BME280;15036;48.094;-1.690;2022-12-07T06:21:32;101531.88;;;6.37;57.90
27613;BME280;15036;48.094;-1.690;2022-12-07T06:23:58;101531.41;;;6.41;57.92
27613;BME280;15036;48.094;-1.690;2022-12-07T06:26:23;101532.91;;;6.53;57.44
27613;BME280;15036;48.094;-1.690;2022-12-07T06:28:49;101528.72;;;6.41;58.01
27613;BME280;15036;48.094;-1.690;2022-12-07T06:31:14;101533.03;;;6.52;57.56
27613;BME280;15036;48.094;-1.690;2022-12-07T06:33:41;101533.97;;;6.60;57.50
27613;BME280;15036;48.094;-1.690;2022-12-07T06:36:07;101526.28;;;6.56;57.67
27613;BME280;15036;48.094;-1.690;2022-12-07T06:38:33;101533.81;;;6.62;57.21
27613;BME280;15036;48.094;-1.690;2022-12-07T06:40:58;101533.91;;;6.52;57.37
27613;BME280;15036;48.094;-1.690;2022-12-07T06:43:23;101537.63;;;6.51;57.20
27613;BME280;15036;48.094;-1.690;2022-12-07T06:45:49;101533.66;;;6.46;57.38
27613;BME280;15036;48.094;-1.690;2022-12-07T06:48:14;101542.44;;;6.57;57.40
27613;BME280;15036;48.094;-1.690;2022-12-07T06:50:39;101535.22;;;6.48;57.38
27613;BME280;15036;48.094;-1.690;2022-12-07T06:53:05;101544.22;;;6.49;57.24
27613;BME280;15036;48.094;-1.690;2022-12-07T06:55:30;101534.75;;;6.53;57.41
27613;BME280;15036;48.094;-1.690;2022-12-07T06:57:56;101532.50;;;6.48;57.43
27613;BME280;15036;48.094;-1.690;2022-12-07T07:00:21;101536.53;;;6.44;57.35
27613;BME280;15036;48.094;-1.690;2022-12-07T07:02:47;101538.69;;;6.41;57.29
27613;BME280;15036;48.094;-1.690;2022-12-07T07:05:12;101539.03;;;6.38;57.45
27613;BME280;15036;48.094;-1.690;2022-12-07T07:07:37;101543.03;;;6.34;57.31
27613;BME280;15036;48.094;-1.690;2022-12-07T07:10:03;101544.97;;;6.41;57.09
27613;BME280;15036;48.094;-1.690;2022-12-07T07:12:29;101541.47;;;6.31;57.24
27613;BME280;15036;48.094;-1.690;2022-12-07T07:14:54;101550.22;;;6.25;57.46
27613;BME280;15036;48.094;-1.690;2022-12-07T07:17:20;101546.03;;;6.31;57.56
27613;BME280;15036;48.094;-1.690;2022-12-07T07:19:45;101546.13;;;6.39;57.27
27613;BME280;15036;48.094;-1.690;2022-12-07T07:22:10;101534.66;;;6.27;57.36
27613;BME280;15036;48.094;-1.690;2022-12-07T07:24:36;101538.59;;;6.33;57.32
27613;BME280;15036;48.094;-1.690;2022-12-07T07:27:01;101540.31;;;6.34;57.08
27613;BME280;15036;48.094;-1.690;2022-12-07T07:29:26;101544.34;;;6.30;57.40
27613;BME280;15036;48.094;-1.690;2022-12-07T07:31:52;101544.28;;;6.39;57.38
27613;BME280;15036;48.094;-1.690;2022-12-07T07:34:17;101542.47;;;6.48;57.07
27613;BME280;15036;48.094;-1.690;2022-12-07T07:36:43;101549.88;;;6.55;56.84
27613;BME280;15036;48.094;-1.690;2022-12-07T07:39:09;101554.13;;;6.58;56.99
27613;BME280;15036;48.094;-1.690;2022-12-07T07:41:35;101554.25;;;6.39;56.93
27613;BME280;15036;48.094;-1.690;2022-12-07T07:44:01;101543.28;;;6.58;56.53
27613;BME280;15036;48.094;-1.690;2022-12-07T07:46:26;101552.16;;;6.33;57.23
27613;BME280;15036;48.094;-1.690;2022-12-07T07:48:51;101549.28;;;6.34;57.30
27613;BME280;15036;48.094;-1.690;2022-12-07T07:51:17;101555.22;;;6.47;57.42
27613;BME280;15036;48.094;-1.690;2022-12-07T07:53:42;101546.75;;;6.50;57.32
27613;BME280;15036;48.094;-1.690;2022-12-07T07:56:07;101546.53;;;6.44;57.43
27613;BME280;15036;48.094;-1.690;2022-12-07T07:58:33;101538.63;;;6.50;57.37
27613;BME280;15036;48.094;-1.690;2022-12-07T08:01:07;101545.69;;;6.61;57.26
27613;BME280;15036;48.094;-1.690;2022-12-07T08:03:33;101547.72;;;6.59;57.22
27613;BME280;15036;48.094;-1.690;2022-12-07T08:05:59;101549.25;;;6.61;56.93
27613;BME280;15036;48.094;-1.690;2022-12-07T08:08:24;101551.66;;;6.64;57.06
27613;BME280;15036;48.094;-1.690;2022-12-07T08:10:49;101552.88;;;6.70;57.20
27613;BME280;15036;48.094;-1.690;2022-12-07T08:13:16;101557.94;;;6.65;56.96
27613;BME280;15036;48.094;-1.690;2022-12-07T08:15:48;101569.50;;;6.67;57.24
27613;BME280;15036;48.094;-1.690;2022-12-07T08:18:14;101566.25;;;6.63;57.11
27613;BME280;15036;48.094;-1.690;2022-12-07T08:20:40;101568.00;;;6.90;56.78
27613;BME280;15036;48.094;-1.690;2022-12-07T08:23:07;101574.47;;;6.89;57.04
27613;BME280;15036;48.094;-1.690;2022-12-07T08:25:35;101572.13;;;6.76;56.97
27613;BME280;15036;48.094;-1.690;2022-12-07T08:28:00;101566.16;;;6.90;56.57
27613;BME280;15036;48.094;-1.690;2022-12-07T08:30:27;101562.13;;;6.94;56.57
27613;BME280;15036;48.094;-1.690;2022-12-07T08:32:52;101568.94;;;6.98;56.74
27613;BME280;15036;48.094;-1.690;2022-12-07T08:35:18;101556.16;;;7.09;56.39
27613;BME280;15036;48.094;-1.690;2022-12-07T08:37:43;101565.09;;;7.01;56.40
27613;BME280;15036;48.094;-1.690;2022-12-07T08:40:11;101560.03;;;7.06;56.71
27613;BME280;15036;48.094;-1.690;2022-12-07T08:42:41;101559.41;;;7.12;56.11
27613;BME280;15036;48.094;-1.690;2022-12-07T08:45:09;101565.00;;;7.11;56.19
27613;BME280;15036;48.094;-1.690;2022-12-07T08:47:37;101561.03;;;7.05;56.39
27613;BME280;15036;48.094;-1.690;2022-12-07T08:50:05;101552.81;;;7.15;56.36
27613;BME280;15036;48.094;-1.690;2022-12-07T08:52:33;101563.41;;;7.26;55.98
27613;BME280;15036;48.094;-1.690;2022-12-07T08:55:00;101555.09;;;7.27;55.85
27613;BME280;15036;48.094;-1.690;2022-12-07T08:57:27;101554.63;;;7.32;55.73
27613;BME280;15036;48.094;-1.690;2022-12-07T08:59:53;101550.06;;;7.32;55.87
27613;BME280;15036;48.094;-1.690;2022-12-07T09:02:18;101576.94;;;7.43;55.40
27613;BME280;15036;48.094;-1.690;2022-12-07T09:04:44;101572.56;;;7.25;56.00
27613;BME280;15036;48.094;-1.690;2022-12-07T09:07:09;101560.28;;;7.38;55.97
27613;BME280;15036;48.094;-1.690;2022-12-07T09:09:35;101574.56;;;7.40;55.30
27613;BME280;15036;48.094;-1.690;2022-12-07T09:12:00;101582.25;;;7.27;55.88
27613;BME280;15036;48.094;-1.690;2022-12-07T09:14:26;101579.41;;;7.29;55.81
27613;BME280;15036;48.094;-1.690;2022-12-07T09:16:51;101580.72;;;7.25;55.88
27613;BME280;15036;48.094;-1.690;2022-12-07T09:19:17;101570.44;;;7.36;55.94
27613;BME280;15036;48.094;-1.690;2022-12-07T09:21:42;101570.63;;;7.35;55.81
27613;BME280;15036;48.094;-1.690;2022-12-07T09:24:08;101571.63;;;7.34;55.93
27613;BME280;15036;48.094;-1.690;2022-12-07T09:26:34;101570.34;;;7.46;55.69
27613;BME280;15036;48.094;-1.690;2022-12-07T09:29:01;101564.50;;;7.33;55.89
27613;BME280;15036;48.094;-1.690;2022-12-07T09:31:26;101564.22;;;7.44;55.98
27613;BME280;15036;48.094;-1.690;2022-12-07T09:33:59;101566.66;;;7.55;55.69
27613;BME280;15036;48.094;-1.690;2022-12-07T09:36:26;101562.63;;;7.59;55.65
27613;BME280;15036;48.094;-1.690;2022-12-07T09:38:52;101555.91;;;7.45;55.98
27613;BME280;15036;48.094;-1.690;2022-12-07T09:41:18;101553.63;;;7.58;55.50
27613;BME280;15036;48.094;-1.690;2022-12-07T09:43:44;101544.69;;;7.40;55.73
27613;BME280;15036;48.094;-1.690;2022-12-07T09:46:15;101543.28;;;7.11;56.16
27613;BME280;15036;48.094;-1.690;2022-12-07T09:48:42;101544.47;;;7.34;55.81
27613;BME280;15036;48.094;-1.690;2022-12-07T09:51:34;101558.47;;;7.47;55.43
27613;BME280;15036;48.094;-1.690;2022-12-07T09:54:00;101553.19;;;7.45;55.69
27613;BME280;15036;48.094;-1.690;2022-12-07T09:56:29;101554.34;;;7.43;55.62
27613;BME280;15036;48.094;-1.690;2022-12-07T09:59:00;101551.91;;;7.32;55.97
27613;BME280;15036;48.094;-1.690;2022-12-07T10:01:31;101554.19;;;7.19;55.94
27613;BME280;15036;48.094;-1.690;2022-12-07T10:04:19;101557.69;;;7.29;56.04
27613;BME280;15036;48.094;-1.690;2022-12-07T10:06:46;101554.31;;;7.35;55.93
27613;BME280;15036;48.094;-1.690;2022-12-07T10:09:17;101553.28;;;7.36;56.01
27613;BME280;15036;48.094;-1.690;2022-12-07T10:12:00;101560.66;;;7.43;56.03
27613;BME280;15036;48.094;-1.690;2022-12-07T10:14:28;101557.06;;;7.43;56.57
27613;BME280;15036;48.094;-1.690;2022-12-07T10:16:55;101547.50;;;7.56;56.14
27613;BME280;15036;48.094;-1.690;2022-12-07T10:19:30;101556.38;;;7.41;56.37
27613;BME280;15036;48.094;-1.690;2022-12-07T10:22:16;101549.47;;;7.72;55.66
27613;BME280;15036;48.094;-1.690;2022-12-07T10:24:43;101554.16;;;7.62;56.00
27613;BME280;15036;48.094;-1.690;2022-12-07T10:27:31;101555.16;;;7.61;56.30
27613;BME280;15036;48.094;-1.690;2022-12-07T10:29:57;101545.56;;;7.74;56.08
27613;BME280;15036;48.094;-1.690;2022-12-07T10:32:35;101539.81;;;7.77;55.86
27613;BME280;15036;48.094;-1.690;2022-12-07T10:37:45;101537.84;;;7.62;56.35
27613;BME280;15036;48.094;-1.690;2022-12-07T10:40:35;101542.06;;;7.82;56.25
27613;BME280;15036;48.094;-1.690;2022-12-07T10:45:28;101540.19;;;7.90;56.28
27613;BME280;15036;48.094;-1.690;2022-12-07T10:48:19;101531.28;;;8.14;55.59
27613;BME280;15036;48.094;-1.690;2022-12-07T10:56:01;101526.03;;;8.13;55.92
27613;BME280;15036;48.094;-1.690;2022-12-07T11:02:06;101523.28;;;8.54;55.15
27613;BME280;15036;48.094;-1.690;2022-12-07T11:05:14;101520.09;;;8.59;55.31
27613;BME280;15036;48.094;-1.690;2022-12-07T11:07:32;101517.88;;;8.62;55.28
27613;BME280;15036;48.094;-1.690;2022-12-07T11:10:24;101508.16;;;8.68;55.33
27613;BME280;15036;48.094;-1.690;2022-12-07T11:13:13;101510.59;;;8.79;54.83
27613;BME280;15036;48.094;-1.690;2022-12-07T11:19:14;101507.69;;;8.97;54.43
27613;BME280;15036;48.094;-1.690;2022-12-07T11:21:48;101500.88;;;8.93;54.70
27613;BME280;15036;48.094;-1.690;2022-12-07T11:37:44;101482.47;;;9.27;53.87
27613;BME280;15036;48.094;-1.690;2022-12-07T11:40:19;101482.97;;;9.30;53.38
27613;BME280;15036;48.094;-1.690;2022-12-07T11:42:51;101482.28;;;9.36;53.26
27613;BME280;15036;48.094;-1.690;2022-12-07T11:45:27;101480.06;;;9.32;53.70
27613;BME280;15036;48.094;-1.690;2022-12-07T11:48:09;101478.41;;;9.15;54.01
27613;BME280;15036;48.094;-1.690;2022-12-07T11:50:45;101467.34;;;9.16;54.15
27613;BME280;15036;48.094;-1.690;2022-12-07T11:53:21;101469.19;;;9.16;54.39
27613;BME280;15036;48.094;-1.690;2022-12-07T12:01:26;101464.19;;;9.43;54.06
27613;BME280;15036;48.094;-1.690;2022-12-07T12:03:54;101456.31;;;9.65;53.47
27613;BME280;15036;48.094;-1.690;2022-12-07T12:06:22;101443.03;;;9.61;54.00
27613;BME280;15036;48.094;-1.690;2022-12-07T12:09:04;101444.47;;;9.88;53.10
27613;BME280;15036;48.094;-1.690;2022-12-07T12:22:44;101432.66;;;10.26;52.54
27613;BME280;15036;48.094;-1.690;2022-12-07T12:25:34;101432.03;;;10.16;53.05
27613;BME280;15036;48.094;-1.690;2022-12-07T12:28:00;101431.75;;;10.34;52.36
27613;BME280;15036;48.094;-1.690;2022-12-07T12:30:35;101421.03;;;10.32;52.60
27613;BME280;15036;48.094;-1.690;2022-12-07T12:33:04;101420.53;;;10.29;52.46
27613;BME280;15036;48.094;-1.690;2022-12-07T12:35:36;101419.44;;;10.38;52.51
27613;BME280;15036;48.094;-1.690;2022-12-07T12:40:48;101416.72;;;10.38;52.05
27613;BME280;15036;48.094;-1.690;2022-12-07T12:43:42;101405.38;;;10.26;52.42
27613;BME280;15036;48.094;-1.690;2022-12-07T12:51:43;101395.84;;;10.22;52.38
27613;BME280;15036;48.094;-1.690;2022-12-07T12:59:26;101378.50;;;10.38;52.30
27613;BME280;15036;48.094;-1.690;2022-12-07T13:02:09;101370.91;;;10.48;52.33
27613;BME280;15036;48.094;-1.690;2022-12-07T13:12:59;101368.13;;;10.93;51.69
27613;BME280;15036;48.094;-1.690;2022-12-07T13:26:12;101351.16;;;11.56;49.51
27613;BME280;15036;48.094;-1.690;2022-12-07T13:28:47;101348.22;;;11.58;50.11
27613;BME280;15036;48.094;-1.690;2022-12-07T13:33:42;101344.03;;;11.91;48.88
27613;BME280;15036;48.094;-1.690;2022-12-07T13:36:19;101340.84;;;11.87;48.98
27613;BME280;15036;48.094;-1.690;2022-12-07T13:38:54;101339.63;;;12.11;48.56
27613;BME280;15036;48.094;-1.690;2022-12-07T13:41:22;101326.97;;;12.31;47.77
27613;BME280;15036;48.094;-1.690;2022-12-07T13:43:54;101328.34;;;12.20;48.33
27613;BME280;15036;48.094;-1.690;2022-12-07T13:46:35;101327.22;;;12.36;48.52
27613;BME280;15036;48.094;-1.690;2022-12-07T13:49:17;101316.91;;;12.59;47.63
27613;BME280;15036;48.094;-1.690;2022-12-07T13:51:43;101302.66;;;12.70;47.44
27613;BME280;15036;48.094;-1.690;2022-12-07T13:54:12;101302.28;;;12.80;47.24
27613;BME280;15036;48.094;-1.690;2022-12-07T13:56:39;101296.66;;;12.88;46.35
27613;BME280;15036;48.094;-1.690;2022-12-07T13:59:14;101298.59;;;12.94;46.11
27613;BME280;15036;48.094;-1.690;2022-12-07T14:01:41;101296.88;;;12.86;46.55
27613;BME280;15036;48.094;-1.690;2022-12-07T14:06:55;101292.59;;;13.05;46.29
27613;BME280;15036;48.094;-1.690;2022-12-07T14:09:22;101288.25;;;13.17;45.70
27613;BME280;15036;48.094;-1.690;2022-12-07T14:11:49;101294.13;;;13.14;45.74
27613;BME280;15036;48.094;-1.690;2022-12-07T14:14:18;101285.28;;;13.19;46.12
27613;BME280;15036;48.094;-1.690;2022-12-07T14:17:16;101285.34;;;13.32;45.78
27613;BME280;15036;48.094;-1.690;2022-12-07T14:19:51;101278.44;;;13.42;45.88
27613;BME280;15036;48.094;-1.690;2022-12-07T14:22:36;101276.81;;;13.54;45.71
27613;BME280;15036;48.094;-1.690;2022-12-07T14:25:23;101274.97;;;13.74;45.35
27613;BME280;15036;48.094;-1.690;2022-12-07T14:30:16;101268.69;;;14.07;44.32
27613;BME280;15036;48.094;-1.690;2022-12-07T14:32:41;101266.56;;;14.09;44.21
27613;BME280;15036;48.094;-1.690;2022-12-07T14:35:11;101262.78;;;14.10;44.52
27613;BME280;15036;48.094;-1.690;2022-12-07T14:37:38;101258.16;;;14.10;44.46
27613;BME280;15036;48.094;-1.690;2022-12-07T14:40:05;101263.25;;;14.33;43.49
27613;BME280;15036;48.094;-1.690;2022-12-07T14:42:32;101271.28;;;14.28;43.82
27613;BME280;15036;48.094;-1.690;2022-12-07T14:44:58;101263.22;;;14.20;44.21
27613;BME280;15036;48.094;-1.690;2022-12-07T14:47:25;101259.00;;;14.30;44.14
27613;BME280;15036;48.094;-1.690;2022-12-07T14:49:52;101260.09;;;14.36;43.77